createdAt,value
2022-09-02T00:01:53.943Z,46.22
2022-09-02T00:04:23.534Z,46.26
2022-09-02T00:06:49.776Z,46.13
2022-09-02T00:09:16.642Z,46.16
2022-09-02T00:11:42.548Z,46.31
2022-09-02T00:14:10.229Z,46.16
2022-09-02T00:16:36.473Z,46.20
2022-09-02T00:19:02.163Z,46.17
2022-09-02T00:21:27.774Z,46.31
2022-09-02T00:23:53.312Z,46.20
2022-09-02T00:26:18.857Z,46.14
2022-09-02T00:28:49.025Z,46.18
2022-09-02T00:31:18.922Z,46.19
2022-09-02T00:33:44.515Z,46.47
2022-09-02T00:36:10.213Z,46.25
2022-09-02T00:38:36.178Z,46.32
2022-09-02T00:41:03.366Z,46.35
2022-09-02T00:43:45.985Z,46.30
2022-09-02T00:46:12.248Z,46.49
2022-09-02T00:48:40.437Z,46.30
2022-09-02T00:51:07.010Z,46.35
2022-09-02T00:53:32.613Z,46.43
2022-09-02T00:55:58.613Z,46.33
2022-09-02T00:58:25.881Z,46.29
2022-09-02T01:00:55.718Z,46.29
2022-09-02T01:03:22.256Z,46.42
2022-09-02T01:05:48.662Z,46.29
2022-09-02T01:08:15.560Z,46.30
2022-09-02T01:10:42.250Z,46.43
2022-09-02T01:13:11.484Z,46.31
2022-09-02T01:15:38.578Z,46.37
2022-09-02T01:18:05.736Z,46.57
2022-09-02T01:20:31.635Z,46.43
2022-09-02T01:22:57.615Z,46.30
2022-09-02T01:25:24.601Z,46.41
2022-09-02T01:27:50.134Z,46.32
2022-09-02T01:30:18.386Z,46.30
2022-09-02T01:32:43.945Z,46.51
2022-09-02T01:35:10.240Z,46.50
2022-09-02T01:37:37.821Z,46.29
2022-09-02T01:40:04.111Z,46.34
2022-09-02T01:42:29.757Z,46.40
2022-09-02T01:44:55.311Z,46.50
2022-09-02T01:47:22.301Z,46.42
2022-09-02T01:49:47.844Z,46.42
2022-09-02T01:52:13.764Z,46.35
2022-09-02T01:54:39.349Z,46.41
2022-09-02T01:57:04.891Z,46.31
2022-09-02T01:59:30.437Z,46.61
2022-09-02T02:01:55.999Z,46.36
2022-09-02T02:04:23.924Z,47.12
2022-09-02T02:06:52.332Z,46.82
2022-09-02T02:09:19.065Z,46.40
2022-09-02T02:11:44.842Z,46.55
2022-09-02T02:14:10.512Z,46.81
2022-09-02T02:16:36.128Z,47.05
2022-09-02T02:19:01.765Z,47.31
2022-09-02T02:21:27.316Z,47.38
2022-09-02T02:23:52.965Z,46.49
2022-09-02T02:26:18.511Z,46.53
2022-09-02T02:28:46.002Z,46.54
2022-09-02T02:31:11.575Z,46.45
2022-09-02T02:33:37.569Z,46.49
2022-09-02T02:36:04.093Z,46.85
2022-09-02T02:38:30.228Z,46.50
2022-09-02T02:40:56.690Z,46.43
2022-09-02T02:43:23.007Z,46.57
2022-09-02T02:45:49.157Z,46.79
2022-09-02T02:48:14.696Z,46.41
2022-09-02T02:50:41.129Z,46.82
2022-09-02T02:53:06.670Z,46.39
2022-09-02T02:55:32.278Z,46.54
2022-09-02T02:57:57.817Z,46.81
2022-09-02T03:00:24.533Z,46.44
2022-09-02T03:02:51.401Z,46.77
2022-09-02T03:05:17.066Z,46.58
2022-09-02T03:07:42.604Z,46.57
2022-09-02T03:10:12.214Z,46.87
2022-09-02T03:12:38.828Z,46.68
2022-09-02T03:15:05.217Z,46.51
2022-09-02T03:17:30.869Z,46.83
2022-09-02T03:19:58.594Z,46.50
2022-09-02T03:22:25.043Z,46.45
2022-09-02T03:24:50.584Z,46.53
2022-09-02T03:27:16.117Z,46.91
2022-09-02T03:29:41.661Z,46.50
2022-09-02T03:32:07.986Z,46.49
2022-09-02T03:34:33.592Z,46.74
2022-09-02T03:36:59.132Z,46.67
2022-09-02T03:39:24.679Z,46.55
2022-09-02T03:41:50.458Z,46.44
2022-09-02T03:44:16.010Z,46.76
2022-09-02T03:46:41.553Z,46.47
2022-09-02T03:49:07.144Z,46.49
2022-09-02T03:51:32.724Z,46.52
2022-09-02T03:53:58.260Z,46.65
2022-09-02T03:56:24.415Z,46.54
2022-09-02T03:58:50.632Z,46.43
2022-09-02T04:01:18.312Z,46.51
2022-09-02T04:03:43.888Z,46.80
2022-09-02T04:06:11.081Z,46.46
2022-09-02T04:08:36.622Z,46.84
2022-09-02T04:11:09.685Z,46.46
2022-09-02T04:13:35.408Z,46.57
2022-09-02T04:16:05.339Z,46.86
2022-09-02T04:18:36.253Z,46.66
2022-09-02T04:21:01.802Z,46.94
2022-09-02T04:23:27.881Z,47.41
2022-09-02T04:25:53.527Z,46.43
2022-09-02T04:28:19.061Z,46.44
2022-09-02T04:30:44.607Z,46.71
2022-09-02T04:33:10.181Z,46.62
2022-09-02T04:35:39.082Z,46.58
2022-09-02T04:38:04.624Z,46.49
2022-09-02T04:40:30.709Z,46.86
2022-09-02T04:42:56.356Z,46.58
2022-09-02T04:45:24.583Z,47.50
2022-09-02T04:47:52.153Z,47.47
2022-09-02T04:50:17.696Z,47.17
2022-09-02T04:52:43.236Z,47.03
2022-09-02T04:55:09.084Z,47.15
2022-09-02T04:57:35.189Z,45.74
2022-09-02T05:00:02.970Z,46.05
2022-09-02T05:02:28.595Z,44.93
2022-09-02T05:04:54.322Z,43.86
2022-09-02T05:07:19.860Z,43.76
2022-09-02T05:09:45.401Z,44.19
2022-09-02T05:12:12.180Z,43.82
2022-09-02T05:14:37.745Z,44.72
2022-09-02T05:17:07.489Z,44.25
2022-09-02T05:19:33.489Z,44.84
2022-09-02T05:22:00.885Z,45.17
2022-09-02T05:24:27.329Z,43.85
2022-09-02T05:26:53.017Z,43.54
2022-09-02T05:29:19.745Z,43.35
2022-09-02T05:31:45.605Z,42.90
2022-09-02T05:34:11.149Z,42.54
2022-09-02T05:36:36.689Z,42.36
2022-09-02T05:39:02.959Z,42.96
2022-09-02T05:41:28.505Z,42.50
2022-09-02T05:43:55.268Z,42.26
2022-09-02T05:46:22.503Z,41.80
2022-09-02T05:49:08.205Z,42.66
2022-09-02T05:51:38.076Z,42.96
2022-09-02T05:54:03.621Z,43.49
2022-09-02T05:56:29.160Z,38.63
2022-09-02T05:58:55.197Z,39.03
2022-09-02T06:01:21.009Z,38.91
2022-09-02T06:03:46.821Z,38.89
2022-09-02T06:06:12.773Z,39.08
2022-09-02T06:08:38.548Z,39.54
2022-09-02T06:11:04.301Z,39.83
2022-09-02T06:13:30.425Z,39.47
2022-09-02T06:15:56.944Z,40.03
2022-09-02T06:18:22.507Z,39.74
2022-09-02T06:20:49.686Z,39.89
2022-09-02T06:23:15.245Z,40.13
2022-09-02T06:25:41.756Z,39.93
2022-09-02T06:28:07.593Z,40.10
2022-09-02T06:30:33.443Z,40.31
2022-09-02T06:32:59.115Z,39.97
2022-09-02T06:35:24.890Z,39.85
2022-09-02T06:37:50.442Z,39.88
2022-09-02T06:40:17.495Z,40.32
2022-09-02T06:42:43.053Z,36.53
2022-09-02T06:45:08.839Z,36.95
2022-09-02T06:47:34.376Z,37.21
2022-09-02T06:49:59.921Z,37.60
2022-09-02T06:52:25.459Z,38.52
2022-09-02T06:54:51.298Z,36.77
2022-09-02T06:57:16.869Z,38.29
2022-09-02T06:59:42.465Z,38.20
2022-09-02T07:02:08.209Z,38.22
2022-09-02T07:04:55.689Z,38.71
2022-09-02T07:07:23.131Z,38.88
2022-09-02T07:09:48.829Z,39.12
2022-09-02T07:12:15.919Z,39.16
2022-09-02T07:14:42.024Z,39.59
2022-09-02T07:17:08.370Z,39.65
2022-09-02T07:19:33.961Z,39.92
2022-09-02T07:21:59.568Z,40.45
2022-09-02T07:24:25.224Z,39.92
2022-09-02T07:26:55.238Z,39.26
2022-09-02T07:29:21.498Z,39.31
2022-09-02T07:31:47.300Z,40.01
2022-09-02T07:34:13.714Z,40.58
2022-09-02T07:36:39.647Z,40.35
2022-09-02T07:39:06.047Z,39.87
2022-09-02T07:41:32.131Z,40.21
2022-09-02T07:43:59.725Z,40.36
2022-09-02T07:46:25.607Z,39.88
2022-09-02T07:48:51.208Z,39.88
2022-09-02T07:51:17.566Z,39.32
2022-09-02T07:53:43.615Z,39.15
2022-09-02T07:56:09.172Z,39.58
2022-09-02T07:58:34.711Z,39.31
2022-09-02T08:01:00.297Z,39.86
2022-09-02T08:03:26.131Z,40.20
2022-09-02T08:05:51.739Z,40.54
2022-09-02T08:08:19.446Z,40.91
2022-09-02T08:10:46.063Z,40.93
2022-09-02T08:13:11.617Z,40.82
2022-09-02T08:15:38.059Z,40.83
2022-09-02T08:18:03.852Z,40.67
2022-09-02T08:20:30.360Z,40.78
2022-09-02T08:23:05.873Z,40.90
2022-09-02T08:25:37.537Z,40.60
2022-09-02T08:28:03.100Z,40.71
2022-09-02T08:30:28.663Z,40.70
2022-09-02T08:32:54.199Z,41.08
2022-09-02T08:35:20.156Z,39.44
2022-09-02T08:37:45.700Z,40.97
2022-09-02T08:40:19.202Z,40.94
2022-09-02T08:42:49.707Z,41.03
2022-09-02T08:45:37.319Z,40.65
2022-09-02T08:48:15.263Z,40.65
2022-09-02T08:50:41.976Z,40.71
2022-09-02T08:53:10.366Z,41.23
2022-09-02T08:55:39.112Z,41.07
2022-09-02T09:00:36.764Z,41.31
2022-09-02T09:03:14.482Z,41.45
2022-09-02T09:05:46.890Z,41.25
2022-09-02T09:08:15.813Z,41.26
2022-09-02T09:11:03.462Z,41.27
2022-09-02T09:13:41.655Z,40.36
2022-09-02T09:16:10.102Z,41.17
2022-09-02T09:18:37.807Z,40.90
2022-09-02T09:21:03.597Z,41.29
2022-09-02T09:23:34.243Z,41.48
2022-09-02T09:26:08.482Z,43.04
2022-09-02T09:28:42.777Z,41.76
2022-09-02T09:31:09.496Z,41.59
2022-09-02T09:33:35.047Z,38.62
2022-09-02T09:36:02.931Z,39.63
2022-09-02T09:38:29.521Z,39.86
2022-09-02T09:41:15.291Z,40.37
2022-09-02T09:43:40.852Z,41.14
2022-09-02T09:46:19.348Z,41.52
2022-09-02T09:48:48.208Z,41.44
2022-09-02T09:51:15.043Z,43.14
2022-09-02T09:53:40.610Z,41.86
2022-09-02T09:56:19.863Z,41.63
2022-09-02T09:58:45.840Z,42.13
2022-09-02T10:01:13.642Z,42.82
2022-09-02T10:03:41.147Z,41.71
2022-09-02T10:06:26.575Z,41.59
2022-09-02T10:08:54.117Z,43.11
2022-09-02T10:11:21.183Z,41.92
2022-09-02T10:13:46.768Z,43.34
2022-09-02T10:16:15.428Z,41.93
2022-09-02T10:19:00.879Z,41.30
2022-09-02T10:21:30.945Z,41.21
2022-09-02T10:24:16.376Z,41.77
2022-09-02T10:26:45.558Z,40.25
2022-09-02T10:29:30.976Z,39.77
2022-09-02T10:34:36.841Z,39.88
2022-09-02T10:37:10.280Z,40.24
2022-09-02T10:39:38.998Z,40.18
2022-09-02T10:42:10.269Z,39.48
2022-09-02T10:44:40.397Z,40.06
2022-09-02T10:47:09.381Z,40.10
2022-09-02T10:49:42.989Z,40.34
2022-09-02T10:52:13.902Z,40.61
2022-09-02T10:54:49.792Z,40.14
2022-09-02T10:57:19.215Z,40.30
2022-09-02T10:59:48.228Z,41.09
2022-09-02T11:02:20.511Z,43.15
2022-09-02T11:04:47.564Z,40.22
2022-09-02T11:07:16.896Z,40.10
2022-09-02T11:09:45.883Z,40.47
2022-09-02T11:12:31.308Z,41.26
2022-09-02T11:15:16.740Z,41.87
2022-09-02T11:17:45.001Z,40.33
2022-09-02T11:20:14.053Z,40.43
2022-09-02T11:22:56.957Z,39.05
2022-09-02T11:25:24.788Z,39.34
2022-09-02T11:28:04.200Z,39.53
2022-09-02T11:30:36.630Z,39.20
2022-09-02T11:33:10.227Z,39.62
2022-09-02T11:35:38.037Z,40.40
2022-09-02T11:38:04.871Z,40.48
2022-09-02T11:40:34.880Z,42.13
2022-09-02T11:43:11.807Z,40.20
2022-09-02T11:45:39.992Z,39.73
2022-09-02T11:48:07.907Z,40.60
2022-09-02T11:50:39.512Z,40.12
2022-09-02T11:53:23.400Z,39.95
2022-09-02T11:55:55.412Z,41.64
2022-09-02T11:58:29.683Z,39.89
2022-09-02T12:00:58.541Z,39.97
2022-09-02T12:04:06.512Z,40.15
2022-09-02T12:06:12.848Z,43.16
2022-09-02T12:11:37.321Z,41.88
2022-09-02T12:14:04.655Z,39.28
2022-09-02T12:19:14.920Z,41.16
2022-09-02T12:22:00.554Z,43.40
2022-09-02T12:24:26.460Z,40.21
2022-09-02T12:29:29.472Z,39.85
2022-09-02T12:31:55.393Z,39.77
2022-09-02T12:34:23.796Z,40.08
2022-09-02T12:36:56.745Z,41.00
2022-09-02T12:42:06.207Z,43.46
2022-09-02T12:44:36.171Z,42.95
2022-09-02T12:47:04.318Z,42.88
2022-09-02T12:49:35.520Z,42.66
2022-09-02T12:52:02.922Z,40.48
2022-09-02T12:54:40.359Z,42.42
2022-09-02T12:57:06.264Z,43.03
2022-09-02T12:59:32.622Z,39.53
2022-09-02T13:02:00.851Z,40.31
2022-09-02T13:04:30.359Z,40.52
2022-09-02T13:07:15.787Z,40.93
2022-09-02T13:09:45.805Z,41.81
2022-09-02T13:12:20.051Z,40.74
2022-09-02T13:14:49.467Z,43.47
2022-09-02T13:17:36.942Z,40.73
2022-09-02T13:20:23.607Z,43.21
2022-09-02T13:22:55.460Z,43.11
2022-09-02T13:25:26.027Z,40.14
2022-09-02T13:28:11.584Z,43.42
2022-09-02T13:30:55.641Z,40.85
2022-09-02T13:33:21.256Z,39.08
2022-09-02T13:35:51.843Z,39.33
2022-09-02T13:38:22.796Z,38.75
2022-09-02T13:40:48.495Z,39.48
2022-09-02T13:43:17.215Z,38.33
2022-09-02T13:45:43.082Z,38.47
2022-09-02T13:48:10.372Z,39.23
2022-09-02T13:50:35.919Z,39.23
2022-09-02T13:55:48.998Z,40.67
2022-09-02T13:58:23.040Z,39.35
2022-09-02T14:00:48.642Z,39.04
2022-09-02T14:03:16.256Z,39.63
2022-09-02T14:05:47.339Z,39.85
2022-09-02T14:08:13.716Z,43.19
2022-09-02T14:10:40.733Z,40.15
2022-09-02T14:13:06.627Z,39.42
2022-09-02T14:15:32.504Z,41.07
2022-09-02T14:18:18.574Z,41.22
2022-09-02T14:21:00.015Z,39.64
2022-09-02T14:23:26.472Z,39.90
2022-09-02T14:25:54.520Z,39.31
2022-09-02T14:28:21.423Z,38.83
2022-09-02T14:31:02.991Z,38.94
2022-09-02T14:33:37.376Z,39.20
2022-09-02T14:36:05.186Z,41.12
2022-09-02T14:38:33.183Z,42.04
2022-09-02T14:40:59.640Z,39.92
2022-09-02T14:43:25.184Z,39.59
2022-09-02T14:45:50.764Z,40.30
2022-09-02T14:48:21.974Z,42.94
2022-09-02T14:50:47.669Z,43.61
2022-09-02T14:53:13.204Z,43.52
2022-09-02T14:55:41.067Z,43.57
2022-09-02T14:58:06.604Z,43.61
2022-09-02T15:00:34.621Z,43.83
2022-09-02T15:03:00.900Z,43.67
2022-09-02T15:05:27.382Z,43.75
2022-09-02T15:07:52.944Z,44.57
2022-09-02T15:10:18.493Z,44.07
2022-09-02T15:12:47.355Z,44.01
2022-09-02T15:15:12.896Z,44.24
2022-09-02T15:17:38.439Z,44.16
2022-09-02T15:20:06.232Z,44.09
2022-09-02T15:22:31.779Z,44.31
2022-09-02T15:24:57.492Z,44.56
2022-09-02T15:27:23.032Z,44.53
2022-09-02T15:29:48.887Z,44.34
2022-09-02T15:32:14.488Z,44.46
2022-09-02T15:34:40.026Z,44.39
2022-09-02T15:37:07.796Z,44.45
2022-09-02T15:39:36.467Z,44.42
2022-09-02T15:42:02.031Z,44.35
2022-09-02T15:44:28.505Z,44.38
2022-09-02T15:46:54.166Z,44.40
2022-09-02T15:49:19.964Z,44.66
2022-09-02T15:51:45.647Z,44.33
2022-09-02T15:54:16.383Z,44.43
2022-09-02T15:56:42.627Z,44.50
2022-09-02T15:59:23.226Z,44.23
2022-09-02T16:01:49.748Z,44.40
2022-09-02T16:04:15.303Z,43.88
2022-09-02T16:06:41.941Z,44.29
2022-09-02T16:09:08.262Z,44.63
2022-09-02T16:11:36.430Z,44.69
2022-09-02T16:14:01.968Z,44.56
2022-09-02T16:16:27.525Z,44.57
2022-09-02T16:18:53.089Z,44.63
2022-09-02T16:21:19.384Z,44.23
2022-09-02T16:23:46.779Z,44.24
2022-09-02T16:26:14.756Z,44.58
2022-09-02T16:28:41.349Z,44.63
2022-09-02T16:31:07.370Z,44.55
2022-09-02T16:33:34.152Z,44.81
2022-09-02T16:35:59.706Z,44.68
2022-09-02T16:38:25.249Z,44.32
2022-09-02T16:40:51.311Z,44.82
2022-09-02T16:43:16.854Z,44.57
2022-09-02T16:45:42.413Z,44.61
2022-09-02T16:48:08.004Z,44.20
2022-09-02T16:50:33.549Z,44.27
2022-09-02T16:52:59.083Z,44.18
2022-09-02T16:55:24.628Z,44.62
2022-09-02T16:57:50.163Z,43.99
2022-09-02T17:00:15.850Z,44.15
2022-09-02T17:02:41.545Z,44.18
2022-09-02T17:05:09.282Z,44.99
2022-09-02T17:07:34.830Z,44.76
2022-09-02T17:10:00.372Z,44.22
2022-09-02T17:12:25.912Z,45.02
2022-09-02T17:14:51.459Z,44.97
2022-09-02T17:17:16.992Z,44.59
2022-09-02T17:19:42.535Z,44.81
2022-09-02T17:22:08.074Z,44.36
2022-09-02T17:24:33.619Z,43.92
2022-09-02T17:27:00.369Z,43.94
2022-09-02T17:32:14.147Z,44.68
2022-09-02T17:34:39.984Z,43.78
2022-09-02T17:37:05.636Z,44.26
2022-09-02T17:39:32.923Z,44.51
2022-09-02T17:41:58.488Z,44.73
2022-09-02T17:44:25.653Z,44.26
2022-09-02T17:46:51.202Z,44.38
2022-09-02T17:49:17.836Z,44.24
2022-09-02T17:51:43.833Z,45.03
2022-09-02T17:54:09.619Z,44.74
2022-09-02T17:56:55.079Z,44.86
2022-09-02T17:59:40.508Z,44.83
2022-09-02T18:02:21.789Z,44.21
2022-09-02T18:05:07.380Z,44.03
2022-09-02T18:10:17.832Z,44.28
2022-09-02T18:12:43.369Z,44.45
2022-09-02T18:15:11.010Z,44.93
2022-09-02T18:17:37.681Z,44.29
2022-09-02T18:20:09.716Z,44.25
2022-09-02T18:22:45.509Z,43.99
2022-09-02T18:25:30.944Z,44.64
2022-09-02T18:28:02.218Z,44.23
2022-09-02T18:30:48.167Z,43.97
2022-09-02T18:33:33.624Z,43.72
2022-09-02T18:36:03.397Z,43.86
2022-09-02T18:38:40.292Z,43.60
2022-09-02T18:41:10.883Z,44.09
2022-09-02T18:43:56.500Z,44.62
2022-09-02T18:46:24.070Z,43.95
2022-09-02T18:48:53.274Z,43.92
2022-09-02T18:51:23.437Z,43.87
2022-09-02T18:53:50.649Z,44.01
2022-09-02T18:56:16.439Z,44.39
2022-09-02T18:58:43.740Z,43.84
2022-09-02T19:01:22.268Z,44.27
2022-09-02T19:03:47.915Z,44.01
2022-09-02T19:06:17.644Z,43.98
2022-09-02T19:08:43.816Z,43.99
2022-09-02T19:11:11.948Z,43.95
2022-09-02T19:13:54.711Z,44.69
2022-09-02T19:16:24.598Z,44.13
2022-09-02T19:18:50.191Z,43.97
2022-09-02T19:21:17.057Z,44.19
2022-09-02T19:23:42.692Z,43.72
2022-09-02T19:26:08.228Z,44.05
2022-09-02T19:28:33.892Z,43.90
2022-09-02T19:31:00.584Z,43.77
2022-09-02T19:33:27.249Z,44.40
2022-09-02T19:35:53.212Z,44.27
2022-09-02T19:38:18.802Z,44.13
2022-09-02T19:40:44.542Z,43.91
2022-09-02T19:43:12.037Z,43.61
2022-09-02T19:45:38.125Z,43.81
2022-09-02T19:48:07.450Z,43.81
2022-09-02T19:50:35.877Z,44.14
2022-09-02T19:53:01.421Z,43.79
2022-09-02T19:55:26.969Z,43.89
2022-09-02T19:57:52.502Z,43.83
2022-09-02T20:00:18.232Z,44.12
2022-09-02T20:02:43.764Z,44.14
2022-09-02T20:05:09.997Z,43.82
2022-09-02T20:07:35.642Z,44.02
2022-09-02T20:10:01.311Z,43.81
2022-09-02T20:12:27.832Z,44.41
2022-09-02T20:14:53.520Z,43.87
2022-09-02T20:17:20.300Z,44.16
2022-09-02T20:19:45.885Z,43.70
2022-09-02T20:22:11.703Z,43.88
2022-09-02T20:24:37.253Z,44.10
2022-09-02T20:27:24.162Z,43.91
2022-09-02T20:32:54.184Z,44.23
2022-09-02T20:35:39.669Z,44.48
2022-09-02T20:38:10.292Z,44.32
2022-09-02T20:40:53.066Z,44.93
2022-09-02T20:43:38.652Z,43.76
2022-09-02T20:46:24.101Z,44.35
2022-09-02T20:49:09.651Z,43.75
2022-09-02T20:51:38.928Z,44.10
2022-09-02T20:57:06.712Z,43.99
2022-09-02T20:59:39.577Z,43.95
2022-09-02T21:02:05.201Z,44.29
2022-09-02T21:04:39.768Z,44.14
2022-09-02T21:07:13.980Z,44.09
2022-09-02T21:09:59.411Z,44.41
2022-09-02T21:12:36.806Z,44.73
2022-09-02T21:15:14.104Z,44.51
2022-09-02T21:17:47.793Z,44.55
2022-09-02T21:20:19.248Z,44.64
2022-09-02T21:22:46.765Z,44.94
2022-09-02T21:25:21.939Z,43.99
2022-09-02T21:27:50.187Z,43.86
2022-09-02T21:30:17.984Z,44.00
2022-09-02T21:32:47.184Z,44.01
2022-09-02T21:35:13.427Z,44.17
2022-09-02T21:37:39.455Z,44.41
2022-09-02T21:40:07.120Z,44.45
2022-09-02T21:42:37.679Z,43.89
2022-09-02T21:45:11.032Z,44.90
2022-09-02T21:47:49.292Z,44.50
2022-09-02T21:50:22.343Z,44.00
2022-09-02T21:52:56.119Z,44.33
2022-09-02T21:55:41.533Z,44.21
2022-09-02T21:58:26.989Z,44.72
2022-09-02T22:00:54.013Z,45.01
2022-09-02T22:03:23.029Z,43.89
2022-09-02T22:05:52.449Z,45.08
2022-09-02T22:08:20.553Z,44.81
2022-09-02T22:10:53.336Z,44.75
2022-09-02T22:13:22.605Z,44.56
2022-09-02T22:15:55.627Z,44.56
2022-09-02T22:18:38.412Z,44.02
2022-09-02T22:21:09.450Z,44.15
2022-09-02T22:23:35.412Z,44.56
2022-09-02T22:26:20.838Z,45.21
2022-09-02T22:28:48.204Z,44.35
2022-09-02T22:31:15.344Z,44.37
2022-09-02T22:33:46.983Z,44.66
2022-09-02T22:36:29.921Z,44.60
2022-09-02T22:38:59.072Z,44.02
2022-09-02T22:41:44.623Z,45.48
2022-09-02T22:44:20.957Z,44.51
2022-09-02T22:47:07.999Z,44.17
2022-09-02T22:49:56.759Z,44.05
2022-09-02T22:52:51.793Z,44.90
2022-09-02T22:55:20.713Z,44.61
2022-09-02T22:57:51.448Z,45.65
2022-09-02T23:00:17.765Z,44.69
2022-09-02T23:02:46.529Z,44.76
2022-09-02T23:05:42.402Z,44.32
2022-09-02T23:08:08.301Z,45.01
2022-09-02T23:10:35.753Z,44.25
2022-09-02T23:13:02.608Z,44.45
2022-09-02T23:15:30.169Z,44.65
2022-09-02T23:18:00.654Z,45.69
2022-09-02T23:20:40.413Z,44.60
2022-09-02T23:23:09.637Z,44.82
2022-09-02T23:25:50.088Z,45.55
2022-09-02T23:28:18.120Z,45.02
2022-09-02T23:31:03.582Z,45.56
2022-09-02T23:33:33.238Z,44.42
2022-09-02T23:36:16.381Z,44.54
2022-09-02T23:38:53.437Z,44.92
2022-09-02T23:41:19.370Z,45.36
2022-09-02T23:43:44.913Z,44.62
2022-09-02T23:46:20.427Z,45.66
2022-09-02T23:48:49.438Z,45.06
2022-09-02T23:51:18.761Z,44.02
2022-09-02T23:53:50.446Z,45.59
2022-09-02T23:56:35.873Z,44.49
2022-09-02T23:59:21.381Z,45.29
